Time;durP1;ratioP1;P1;durP2;ratioP2;P2;SDS_P1;SDS_P2;PMS_P1;PMS_P2;Temp;Humidity;BMP_temperature;BMP_pressure;BME280_temperature;BME280_humidity;BME280_pressure;Samples;Min_cycle;Max_cycle;Signal;HPM_P1;HPM_P2
2022/06/17 00:00:47;;;;;;;0.00;0.00;;;17.60;99.90;;;;;;5049175;28;20199;-76
2022/06/17 00:03:14;;;;;;;0.00;0.00;;;17.50;99.90;;;;;;5025078;28;20335;-77
2022/06/17 00:05:42;;;;;;;0.00;0.00;;;17.50;99.90;;;;;;5021887;28;20261;-76
2022/06/17 00:08:13;;;;;;;0.00;0.00;;;17.50;99.90;;;;;;5025290;28;20200;-77
2022/06/17 00:10:40;;;;;;;0.00;0.00;;;17.50;99.90;;;;;;5042656;28;20243;-77
2022/06/17 00:13:12;;;;;;;0.00;0.00;;;17.40;99.90;;;;;;5046350;28;20219;-77
2022/06/17 00:15:40;;;;;;;0.00;0.00;;;17.30;99.90;;;;;;5030410;28;20203;-76
2022/06/17 00:18:07;;;;;;;0.00;0.00;;;17.30;99.90;;;;;;5027803;28;20243;-77
2022/06/17 00:20:35;;;;;;;0.00;0.00;;;17.30;99.90;;;;;;5029510;28;20214;-76
2022/06/17 00:23:02;;;;;;;0.00;0.00;;;17.20;99.90;;;;;;5018297;28;20224;-76
2022/06/17 00:25:32;;;;;;;0.00;0.00;;;17.20;99.90;;;;;;5026380;28;20191;-77
2022/06/17 00:28:00;;;;;;;0.00;0.00;;;17.20;99.90;;;;;;5047906;28;20199;-77
2022/06/17 00:30:29;;;;;;;0.00;0.00;;;17.20;99.90;;;;;;5048005;28;20282;-77
2022/06/17 00:33:00;;;;;;;0.00;0.00;;;17.10;99.90;;;;;;5047150;28;20219;-76
2022/06/17 00:35:30;;;;;;;0.00;0.00;;;17.10;99.90;;;;;;5028918;28;20211;-76
2022/06/17 00:37:58;;;;;;;0.00;0.00;;;17.10;99.90;;;;;;5029573;28;20227;-77
2022/06/17 00:40:26;;;;;;;0.00;0.00;;;17.10;99.90;;;;;;5026816;28;20199;-77
2022/06/17 00:42:55;;;;;;;0.00;0.00;;;17.00;99.90;;;;;;5043390;28;20219;-77
2022/06/17 00:45:28;;;;;;;0.00;0.00;;;17.00;99.90;;;;;;5028388;28;20233;-77
2022/06/17 00:48:02;;;;;;;0.00;0.00;;;17.00;99.90;;;;;;5019159;28;20199;-76
2022/06/17 00:50:34;;;;;;;0.00;0.00;;;16.90;99.90;;;;;;5027562;28;20294;-77
2022/06/17 00:53:10;;;;;;;0.00;0.00;;;16.90;99.90;;;;;;5027882;28;20238;-77
2022/06/17 00:55:42;;;;;;;0.00;0.00;;;16.90;99.90;;;;;;5029529;28;20287;-77
2022/06/17 00:58:15;;;;;;;0.00;0.00;;;16.80;99.90;;;;;;5043796;28;20278;-77
2022/06/17 01:00:43;;;;;;;0.00;0.00;;;16.80;99.90;;;;;;5040831;28;20253;-77
2022/06/17 01:03:14;;;;;;;0.00;0.00;;;;;;;;;;5028081;28;20223;-76
2022/06/17 01:05:45;;;;;;;0.00;0.00;;;16.80;99.90;;;;;;5039865;28;20740;-76
2022/06/17 01:09:57;;;;;;;0.00;0.00;;;16.80;99.90;;;;;;5028040;28;20299;-76
2022/06/17 01:11:07;;;;;;;0.00;0.00;;;16.70;99.90;;;;;;5020673;28;20211;-76
2022/06/17 01:13:34;;;;;;;0.00;0.00;;;16.70;99.90;;;;;;5026024;28;20195;-76
2022/06/17 01:16:02;;;;;;;0.00;0.00;;;;;;;;;;5041737;28;20265;-76
2022/06/17 01:18:32;;;;;;;0.00;0.00;;;;;;;;;;5028935;28;20192;-76
2022/06/17 01:21:19;;;;;;;0.00;0.00;;;16.70;99.90;;;;;;5027769;28;20200;-75
2022/06/17 01:23:49;;;;;;;0.00;0.00;;;16.50;99.90;;;;;;5020897;28;20243;-76
2022/06/17 01:26:17;;;;;;;0.00;0.00;;;16.50;99.90;;;;;;5026922;28;20207;-76
2022/06/17 01:28:44;;;;;;;0.00;0.00;;;16.50;99.90;;;;;;5026556;28;20203;-76
2022/06/17 01:31:12;;;;;;;0.00;0.00;;;16.50;99.90;;;;;;5026447;28;20302;-76
2022/06/17 01:33:42;;;;;;;0.00;0.00;;;16.50;99.90;;;;;;5019552;28;20207;-76
2022/06/17 01:36:14;;;;;;;0.00;0.00;;;16.40;99.90;;;;;;5039110;28;20199;-76
2022/06/17 01:38:46;;;;;;;0.00;0.00;;;16.40;99.90;;;;;;5024328;28;20210;-76
2022/06/17 01:41:16;;;;;;;0.00;0.00;;;16.40;99.90;;;;;;5015860;28;20299;-76
2022/06/17 01:43:48;;;;;;;0.00;0.00;;;16.30;99.90;;;;;;5026252;28;20201;-76
2022/06/17 01:46:19;;;;;;;0.00;0.00;;;16.30;99.90;;;;;;5040743;28;20199;-76
2022/06/17 01:48:52;;;;;;;0.00;0.00;;;16.30;99.90;;;;;;5021353;28;20199;-76
2022/06/17 01:51:22;;;;;;;0.00;0.00;;;;;;;;;;5026656;28;20313;-76
2022/06/17 01:53:54;;;;;;;0.00;0.00;;;16.20;99.90;;;;;;5027742;28;20684;-76
2022/06/17 01:56:27;;;;;;;0.00;0.00;;;16.10;99.90;;;;;;5024695;28;20207;-76
2022/06/17 01:59:00;;;;;;;0.00;0.00;;;16.10;99.90;;;;;;5027596;28;20199;-76
2022/06/17 02:01:32;;;;;;;0.00;0.00;;;16.20;99.90;;;;;;5026162;28;20226;-76
2022/06/17 02:04:04;;;;;;;0.00;0.00;;;16.10;99.90;;;;;;5023604;28;20572;-76
2022/06/17 02:06:37;;;;;;;0.00;0.00;;;16.00;99.90;;;;;;5016005;28;20260;-76
2022/06/17 02:09:05;;;;;;;0.00;0.00;;;16.00;99.90;;;;;;5025973;28;20199;-76
2022/06/17 02:11:36;;;;;;;0.00;0.00;;;16.00;99.90;;;;;;5025047;28;20230;-76
2022/06/17 02:14:12;;;;;;;0.00;0.00;;;15.80;99.90;;;;;;5027831;28;20214;-77
2022/06/17 02:16:51;;;;;;;0.00;0.00;;;15.90;99.90;;;;;;5046245;28;20207;-76
2022/06/17 02:19:31;;;;;;;0.00;0.00;;;15.80;99.90;;;;;;5025870;28;20278;-77
2022/06/17 02:22:02;;;;;;;0.00;0.00;;;15.80;99.90;;;;;;5023793;28;20215;-76
2022/06/17 02:24:30;;;;;;;0.00;0.00;;;15.70;99.90;;;;;;5027007;28;20203;-77
2022/06/17 02:27:01;;;;;;;0.00;0.00;;;15.70;99.90;;;;;;5045096;28;20286;-76
2022/06/17 02:29:31;;;;;;;0.00;0.00;;;15.60;99.90;;;;;;5026483;28;20208;-77
2022/06/17 02:32:05;;;;;;;0.00;0.00;;;15.60;99.90;;;;;;5026860;28;20302;-77
2022/06/17 02:34:36;;;;;;;0.00;0.00;;;15.50;99.90;;;;;;5023937;28;20256;-77
2022/06/17 02:37:10;;;;;;;0.00;0.00;;;15.50;99.90;;;;;;5024362;28;20213;-76
2022/06/17 02:39:43;;;;;;;0.00;0.00;;;15.40;99.90;;;;;;5024448;28;20235;-77
2022/06/17 02:42:18;;;;;;;0.00;0.00;;;15.40;99.90;;;;;;5018816;28;20211;-76
2022/06/17 02:44:48;;;;;;;0.00;0.00;;;;;;;;;;5024804;28;20857;-76
2022/06/17 02:47:16;;;;;;;0.00;0.00;;;;;;;;;;5021759;28;20230;-76
2022/06/17 02:49:44;;;;;;;0.00;0.00;;;;;;;;;;5026066;28;20290;-77
2022/06/17 02:52:17;;;;;;;0.00;0.00;;;15.30;99.90;;;;;;5019792;28;20315;-77
2022/06/17 02:54:49;;;;;;;0.00;0.00;;;15.20;99.90;;;;;;5025850;28;20219;-76
2022/06/17 02:57:27;;;;;;;0.00;0.00;;;15.20;99.90;;;;;;5023346;28;20265;-76
2022/06/17 03:00:12;;;;;;;0.03;0.03;;;15.10;99.90;;;;;;5024027;28;20191;-76
2022/06/17 03:02:49;;;;;;;0.00;0.00;;;15.10;99.90;;;;;;5017547;28;20212;-77
2022/06/17 03:05:20;;;;;;;0.00;0.00;;;15.10;99.90;;;;;;5021443;28;20222;-76
2022/06/17 03:07:48;;;;;;;0.00;0.00;;;15.10;99.90;;;;;;5021667;28;20286;-76
2022/06/17 03:10:27;;;;;;;0.00;0.00;;;15.10;99.90;;;;;;5025516;28;20203;-76
2022/06/17 03:13:01;;;;;;;0.00;0.00;;;15.10;99.90;;;;;;5025130;28;20317;-76
2022/06/17 03:15:29;;;;;;;0.00;0.00;;;15.00;99.90;;;;;;5025845;28;20203;-77
2022/06/17 03:17:56;;;;;;;0.00;0.00;;;15.00;99.90;;;;;;5026267;28;20187;-76
2022/06/17 03:20:27;;;;;;;0.00;0.00;;;15.10;99.90;;;;;;5027326;28;20226;-76
2022/06/17 03:23:01;;;;;;;0.00;0.00;;;15.10;99.90;;;;;;5027208;28;20219;-76
2022/06/17 03:25:34;;;;;;;0.00;0.00;;;15.20;99.90;;;;;;5024897;28;20208;-76
2022/06/17 03:28:09;;;;;;;0.00;0.00;;;15.20;99.90;;;;;;5022629;28;20298;-76
2022/06/17 03:30:41;;;;;;;0.00;0.00;;;15.30;99.90;;;;;;5023372;28;20245;-77
2022/06/17 03:33:14;;;;;;;0.00;0.00;;;15.30;99.90;;;;;;5045457;28;20302;-76
2022/06/17 03:35:44;;;;;;;0.00;0.00;;;15.40;99.90;;;;;;5019088;28;20203;-77
2022/06/17 03:38:22;;;;;;;0.10;0.10;;;15.50;99.90;;;;;;5025031;28;20222;-77
2022/06/17 03:40:55;;;;;;;0.00;0.00;;;15.60;99.90;;;;;;5021584;28;20208;-77
2022/06/17 03:43:29;;;;;;;0.00;0.00;;;15.70;99.90;;;;;;5026456;28;20294;-76
2022/06/17 03:46:01;;;;;;;0.00;0.00;;;15.90;99.90;;;;;;5025913;28;20190;-77
2022/06/17 03:48:35;;;;;;;0.00;0.00;;;15.90;99.90;;;;;;5020846;28;20199;-76
2022/06/17 03:51:03;;;;;;;0.00;0.00;;;16.10;99.90;;;;;;5025422;28;20192;-77
2022/06/17 03:53:35;;;;;;;0.00;0.00;;;16.20;99.90;;;;;;5016114;28;20306;-77
2022/06/17 03:56:07;;;;;;;0.00;0.00;;;16.30;99.90;;;;;;5027031;28;20204;-77
2022/06/17 03:58:40;;;;;;;0.00;0.00;;;16.40;99.90;;;;;;5027385;28;20252;-76
2022/06/17 04:01:14;;;;;;;0.00;0.00;;;16.50;99.90;;;;;;5023549;28;20298;-77
2022/06/17 04:03:47;;;;;;;0.00;0.00;;;16.60;99.90;;;;;;5016514;28;20223;-76
2022/06/17 04:06:18;;;;;;;0.00;0.00;;;16.70;99.90;;;;;;5016382;28;20212;-77
2022/06/17 04:08:53;;;;;;;0.00;0.00;;;16.80;99.90;;;;;;5026057;28;20200;-77
2022/06/17 04:11:21;;;;;;;0.00;0.00;;;17.00;99.90;;;;;;5029323;28;20318;-77
2022/06/17 04:13:51;;;;;;;0.00;0.00;;;17.10;99.90;;;;;;5025433;28;20775;-77
2022/06/17 04:16:24;;;;;;;0.00;0.00;;;17.20;99.90;;;;;;5027350;28;20294;-76
2022/06/17 04:18:52;;;;;;;0.00;0.00;;;17.40;99.90;;;;;;5029797;28;20227;-77
2022/06/17 04:21:19;;;;;;;0.00;0.00;;;17.50;99.90;;;;;;5020628;28;20226;-77
2022/06/17 04:23:47;;;;;;;0.00;0.00;;;17.60;99.90;;;;;;5016513;28;20299;-77
2022/06/17 04:26:37;;;;;;;0.00;0.00;;;17.70;99.90;;;;;;5041334;28;20225;-76
2022/06/17 04:29:18;;;;;;;0.00;0.00;;;17.80;99.90;;;;;;5024767;28;20222;-78
2022/06/17 04:31:48;;;;;;;0.00;0.00;;;18.00;99.90;;;;;;5023342;28;20219;-78
2022/06/17 04:34:19;;;;;;;0.00;0.00;;;18.10;99.90;;;;;;5028613;28;20274;-77
2022/06/17 04:37:00;;;;;;;0.00;0.00;;;18.20;99.90;;;;;;5025280;28;20198;-77
2022/06/17 04:39:39;;;;;;;0.00;0.00;;;18.30;99.90;;;;;;5029097;28;20210;-77
2022/06/17 04:42:16;;;;;;;0.00;0.00;;;18.40;99.90;;;;;;5029213;28;20226;-78
2022/06/17 04:44:45;;;;;;;0.00;0.00;;;18.60;99.90;;;;;;5023468;28;20211;-78
2022/06/17 04:47:16;;;;;;;0.00;0.00;;;18.70;99.90;;;;;;5027228;28;20302;-77
2022/06/17 04:49:50;;;;;;;0.00;0.00;;;18.90;99.90;;;;;;5020341;28;20199;-78
2022/06/17 04:52:26;;;;;;;0.00;0.00;;;19.00;99.90;;;;;;5019372;28;20227;-79
2022/06/17 04:55:00;;;;;;;0.00;0.00;;;19.10;99.90;;;;;;5024324;28;20206;-78
2022/06/17 04:57:39;;;;;;;0.00;0.00;;;19.30;99.90;;;;;;5018100;28;20227;-78
2022/06/17 05:00:19;;;;;;;0.00;0.00;;;19.30;99.90;;;;;;5022947;28;20204;-78
2022/06/17 05:02:47;;;;;;;0.00;0.00;;;19.30;99.90;;;;;;5025886;28;20215;-79
2022/06/17 05:05:35;;;;;;;0.00;0.00;;;19.40;99.90;;;;;;5027567;28;20759;-79
2022/06/17 05:08:07;;;;;;;0.00;0.00;;;19.50;99.90;;;;;;5027820;28;20217;-78
2022/06/17 05:10:42;;;;;;;0.00;0.00;;;19.70;99.90;;;;;;5024318;28;20203;-79
2022/06/17 05:13:16;;;;;;;0.00;0.00;;;19.90;99.90;;;;;;5029715;28;20211;-78
2022/06/17 05:15:44;;;;;;;0.00;0.00;;;20.00;99.90;;;;;;5022982;28;20257;-79
2022/06/17 05:18:12;;;;;;;0.00;0.00;;;20.10;99.90;;;;;;5024870;28;20212;-78
2022/06/17 05:20:42;;;;;;;0.00;0.00;;;20.20;99.90;;;;;;5018457;28;20195;-77
2022/06/17 05:23:15;;;;;;;0.00;0.00;;;20.20;99.90;;;;;;5024050;28;20216;-78
2022/06/17 05:25:48;;;;;;;0.00;0.00;;;20.30;99.90;;;;;;5026623;28;20196;-77
2022/06/17 05:28:20;;;;;;;0.00;0.00;;;20.40;99.90;;;;;;5031401;28;20282;-78
2022/06/17 05:30:53;;;;;;;0.00;0.00;;;20.40;99.90;;;;;;5046170;28;20204;-78
2022/06/17 05:33:22;;;;;;;0.00;0.00;;;20.50;99.90;;;;;;5028475;28;20223;-78
2022/06/17 05:35:49;;;;;;;0.00;0.00;;;20.70;99.90;;;;;;5025665;28;20198;-78
2022/06/17 05:38:17;;;;;;;0.00;0.00;;;20.80;99.90;;;;;;5026954;28;20207;-78
2022/06/17 05:40:45;;;;;;;0.00;0.00;;;20.90;99.90;;;;;;5024591;28;20288;-77
2022/06/17 05:43:13;;;;;;;0.00;0.00;;;21.10;99.90;;;;;;5026857;28;20216;-78
2022/06/17 05:45:42;;;;;;;0.00;0.00;;;21.20;99.90;;;;;;5027110;28;20258;-77
2022/06/17 05:48:27;;;;;;;0.00;0.00;;;21.40;99.90;;;;;;5028013;28;20199;-77
2022/06/17 05:51:04;;;;;;;0.00;0.00;;;21.50;99.90;;;;;;5045460;28;20200;-77
2022/06/17 05:53:50;;;;;;;0.00;0.00;;;21.60;99.90;;;;;;5042133;28;20230;-78
2022/06/17 05:56:36;;;;;;;0.00;0.00;;;21.60;99.90;;;;;;5026581;28;20201;-77
2022/06/17 05:59:05;;;;;;;0.00;0.00;;;21.70;99.90;;;;;;5025739;28;20302;-77
2022/06/17 06:01:35;;;;;;;0.00;0.00;;;21.90;99.90;;;;;;5027691;28;20764;-76
2022/06/17 06:04:05;;;;;;;0.00;0.00;;;21.90;99.90;;;;;;5028260;28;20278;-77
2022/06/17 06:06:32;;;;;;;0.00;0.00;;;22.00;99.90;;;;;;5028179;28;20219;-77
2022/06/17 06:09:00;;;;;;;0.00;0.00;;;22.00;99.90;;;;;;5027106;28;20195;-76
2022/06/17 06:11:28;;;;;;;0.00;0.00;;;22.00;99.90;;;;;;5024912;28;20222;-77
2022/06/17 06:13:56;;;;;;;0.00;0.00;;;22.10;99.90;;;;;;5022627;28;20223;-78
2022/06/17 06:16:23;;;;;;;0.00;0.00;;;22.20;99.90;;;;;;5025867;28;20412;-79
2022/06/17 06:18:57;;;;;;;0.00;0.00;;;22.30;99.90;;;;;;5028065;28;20195;-76
2022/06/17 06:21:28;;;;;;;0.00;0.00;;;22.30;99.90;;;;;;5024020;28;20254;-77
2022/06/17 06:23:56;;;;;;;0.00;0.00;;;22.60;99.90;;;;;;5025819;28;20196;-77
2022/06/17 06:26:32;;;;;;;0.00;0.00;;;22.60;99.90;;;;;;5027021;28;20231;-78
2022/06/17 06:29:23;;;;;;;0.00;0.00;;;22.80;99.90;;;;;;5033699;28;20204;-77
2022/06/17 06:31:50;;;;;;;0.00;0.00;;;22.80;99.90;;;;;;5027175;28;20219;-77
2022/06/17 06:34:39;;;;;;;0.00;0.00;;;22.90;99.90;;;;;;5022103;28;20313;-77
2022/06/17 06:37:08;;;;;;;0.00;0.00;;;23.00;99.90;;;;;;5021301;28;20293;-77
2022/06/17 06:39:35;;;;;;;0.00;0.00;;;23.20;99.90;;;;;;5025931;28;20206;-78
2022/06/17 06:42:02;;;;;;;0.00;0.00;;;23.30;99.90;;;;;;5022856;28;20277;-79
2022/06/17 06:44:30;;;;;;;0.00;0.00;;;;;;;;;;5026272;28;20193;-78
2022/06/17 06:47:21;;;;;;;0.00;0.00;;;23.90;99.90;;;;;;5026100;28;20222;-79
2022/06/17 06:50:15;;;;;;;0.00;0.00;;;23.90;99.90;;;;;;5042184;28;20195;-77
2022/06/17 06:52:43;;;;;;;0.00;0.00;;;24.00;99.90;;;;;;5026970;28;20246;-77
2022/06/17 06:55:12;;;;;;;0.00;0.00;;;24.00;99.90;;;;;;5025880;28;20257;-77
2022/06/17 06:57:47;;;;;;;0.00;0.00;;;24.10;99.90;;;;;;5020256;28;20657;-77
2022/06/17 07:00:19;;;;;;;0.00;0.00;;;24.30;99.90;;;;;;5021023;28;20201;-78
2022/06/17 07:02:47;;;;;;;0.00;0.00;;;24.40;99.90;;;;;;5024530;28;20218;-77
2022/06/17 07:05:15;;;;;;;0.00;0.00;;;24.60;99.90;;;;;;5023210;28;20297;-76
2022/06/17 07:07:44;;;;;;;0.00;0.00;;;;;;;;;;5039820;28;20198;-77
2022/06/17 07:10:13;;;;;;;0.00;0.00;;;;;;;;;;5027654;28;20191;-76
2022/06/17 07:12:41;;;;;;;0.00;0.00;;;;;;;;;;5025479;28;20317;-76
2022/06/17 07:15:10;;;;;;;0.00;0.00;;;;;;;;;;5025955;28;20596;-75
2022/06/17 07:17:37;;;;;;;0.00;0.00;;;;;;;;;;5023601;28;20214;-76
2022/06/17 07:20:05;;;;;;;0.00;0.00;;;;;;;;;;5045747;28;20200;-75
2022/06/17 07:22:35;;;;;;;0.00;0.00;;;25.50;99.90;;;;;;5026474;28;20226;-77
2022/06/17 07:25:04;;;;;;;0.00;0.00;;;25.50;99.90;;;;;;5024524;28;20204;-77
2022/06/17 07:27:31;;;;;;;0.00;0.00;;;25.50;99.90;;;;;;5025758;28;20195;-75
2022/06/17 07:29:58;;;;;;;0.00;0.00;;;25.40;99.90;;;;;;5026214;28;20211;-76
2022/06/17 07:32:25;;;;;;;0.00;0.00;;;;;;;;;;5038765;28;20247;-76
2022/06/17 07:34:52;;;;;;;0.00;0.00;;;25.40;99.90;;;;;;5024802;28;20222;-75
2022/06/17 07:40:06;;;;;;;0.00;0.00;;;25.40;99.90;;;;;;5023287;28;20187;-76
2022/06/17 07:42:40;;;;;;;0.00;0.00;;;;;;;;;;5040996;28;20719;-75
2022/06/17 07:45:09;;;;;;;0.00;0.00;;;25.50;99.90;;;;;;5044076;28;20215;-77
2022/06/17 07:47:48;;;;;;;0.00;0.00;;;25.60;99.90;;;;;;5031136;28;20202;-77
2022/06/17 07:50:19;;;;;;;0.00;0.00;;;25.70;99.90;;;;;;5026747;28;20204;-77
2022/06/17 07:52:46;;;;;;;0.00;0.00;;;25.80;99.90;;;;;;5020018;28;20218;-77
2022/06/17 07:55:15;;;;;;;0.00;0.00;;;25.80;99.90;;;;;;5046112;28;20194;-77
2022/06/17 07:57:42;;;;;;;0.00;0.00;;;25.90;99.90;;;;;;5027163;28;20211;-77
2022/06/17 08:00:13;;;;;;;0.00;0.00;;;25.90;99.90;;;;;;5031013;28;20195;-76
2022/06/17 08:02:41;;;;;;;0.00;0.00;;;26.00;99.90;;;;;;5025084;28;20253;-77
2022/06/17 08:05:09;;;;;;;0.00;0.00;;;26.00;99.90;;;;;;5023084;28;20203;-76
2022/06/17 08:07:35;;;;;;;0.00;0.00;;;26.20;99.90;;;;;;5019041;28;20191;-76
2022/06/17 08:10:03;;;;;;;0.00;0.00;;;26.20;99.90;;;;;;5035776;28;20208;-76
2022/06/17 08:12:32;;;;;;;0.00;0.00;;;26.30;99.90;;;;;;5037463;28;20306;-76
2022/06/17 08:14:59;;;;;;;0.00;0.00;;;26.30;99.90;;;;;;5020055;28;20243;-76
2022/06/17 08:17:26;;;;;;;0.00;0.00;;;26.30;99.90;;;;;;5020771;28;20282;-76
2022/06/17 08:19:56;;;;;;;0.00;0.00;;;;;;;;;;5021718;28;20200;-78
2022/06/17 08:22:24;;;;;;;0.00;0.00;;;26.40;99.90;;;;;;5042910;28;20241;-77
2022/06/17 08:24:52;;;;;;;0.00;0.00;;;26.50;99.90;;;;;;5022829;28;20196;-74
2022/06/17 08:27:20;;;;;;;0.00;0.00;;;26.50;99.90;;;;;;5020807;28;20207;-76
2022/06/17 08:29:52;;;;;;;0.00;0.00;;;26.50;99.90;;;;;;5025371;28;20199;-75
2022/06/17 08:35:10;;;;;;;0.00;0.00;;;26.30;99.90;;;;;;5028190;28;20603;-77
2022/06/17 08:37:37;;;;;;;0.00;0.00;;;26.30;99.90;;;;;;5028707;28;20223;-76
2022/06/17 08:40:18;;;;;;;0.00;0.00;;;26.20;99.90;;;;;;5028567;28;20203;-76
2022/06/17 08:42:57;;;;;;;0.00;0.00;;;26.20;99.90;;;;;;5028645;28;20306;-77
2022/06/17 08:45:35;;;;;;;0.00;0.00;;;26.20;99.90;;;;;;5025547;28;20187;-77
2022/06/17 08:48:19;;;;;;;0.00;0.00;;;26.10;99.90;;;;;;5041945;28;20208;-75
2022/06/17 08:50:59;;;;;;;0.00;0.00;;;26.20;99.90;;;;;;5047708;28;20199;-74
2022/06/17 08:53:44;;;;;;;0.00;0.00;;;26.30;99.90;;;;;;5041889;28;20211;-75
2022/06/17 08:56:19;;;;;;;0.00;0.00;;;26.40;99.90;;;;;;5026659;28;20231;-74
2022/06/17 08:58:57;;;;;;;0.00;0.00;;;26.40;99.90;;;;;;5043903;28;20202;-75
2022/06/17 09:01:36;;;;;;;0.00;0.00;;;26.40;99.90;;;;;;5033108;28;20219;-75
2022/06/17 09:04:19;;;;;;;0.00;0.00;;;26.50;99.90;;;;;;5026341;28;20199;-76
2022/06/17 09:06:59;;;;;;;0.00;0.00;;;26.60;99.90;;;;;;5021958;28;20246;-76
2022/06/17 09:09:43;;;;;;;0.00;0.00;;;26.70;99.90;;;;;;5026554;28;20206;-76
2022/06/17 09:12:17;;;;;;;0.00;0.00;;;26.80;99.90;;;;;;5030504;28;20322;-76
2022/06/17 09:14:54;;;;;;;0.00;0.00;;;26.90;99.90;;;;;;5029769;28;20646;-75
2022/06/17 09:17:30;;;;;;;0.00;0.00;;;27.00;99.90;;;;;;5030066;28;20210;-75
2022/06/17 09:20:03;;;;;;;0.00;0.00;;;27.00;99.90;;;;;;5028196;28;20195;-75
2022/06/17 09:22:38;;;;;;;0.00;0.00;;;26.90;99.90;;;;;;5030360;28;20286;-75
2022/06/17 09:25:07;;;;;;;0.00;0.00;;;26.90;99.90;;;;;;5026049;28;20191;-75
2022/06/17 09:27:37;;;;;;;0.00;0.00;;;26.90;99.90;;;;;;5027460;28;20282;-75
2022/06/17 09:30:11;;;;;;;0.00;0.00;;;26.90;99.90;;;;;;5027605;28;20261;-75
2022/06/17 09:32:44;;;;;;;0.00;0.00;;;26.80;99.90;;;;;;5024380;28;20229;-75
2022/06/17 09:35:16;;;;;;;0.00;0.00;;;26.80;99.90;;;;;;5047794;28;20235;-76
2022/06/17 09:37:47;;;;;;;0.00;0.00;;;26.70;99.90;;;;;;5023236;28;20199;-76
2022/06/17 09:40:17;;;;;;;0.00;0.00;;;;;;;;;;5023408;28;20222;-76
2022/06/17 09:42:49;;;;;;;0.00;0.00;;;26.60;99.90;;;;;;5028622;28;20222;-76
2022/06/17 09:45:25;;;;;;;0.00;0.00;;;26.60;99.90;;;;;;5029604;28;20198;-75
2022/06/17 09:47:58;;;;;;;0.00;0.00;;;26.70;99.90;;;;;;5025005;28;20199;-76
2022/06/17 09:50:31;;;;;;;0.00;0.00;;;26.90;99.90;;;;;;5029085;28;20196;-75
2022/06/17 09:53:03;;;;;;;0.00;0.00;;;27.00;99.90;;;;;;5018867;28;20216;-75
2022/06/17 09:55:37;;;;;;;0.00;0.00;;;27.10;99.90;;;;;;5046545;28;20310;-75
2022/06/17 09:58:07;;;;;;;0.00;0.00;;;27.20;99.90;;;;;;5027160;28;20206;-75
2022/06/17 10:00:39;;;;;;;0.00;0.00;;;27.30;99.90;;;;;;5045725;28;20286;-75
2022/06/17 10:03:19;;;;;;;0.00;0.00;;;27.70;99.90;;;;;;5023967;28;20313;-75
2022/06/17 10:05:52;;;;;;;0.00;0.00;;;27.40;99.90;;;;;;5036787;28;20206;-75
2022/06/17 10:08:28;;;;;;;0.00;0.00;;;27.30;99.90;;;;;;5045897;28;20191;-75
2022/06/17 10:11:08;;;;;;;0.00;0.00;;;27.20;99.90;;;;;;5042699;28;20202;-75
2022/06/17 10:13:43;;;;;;;0.00;0.00;;;27.40;99.90;;;;;;5031071;28;20211;-74
2022/06/17 10:19:20;;;;;;;0.00;0.00;;;27.40;99.90;;;;;;5026659;28;20199;-74
2022/06/17 10:22:01;;;;;;;0.00;0.00;;;27.50;99.90;;;;;;5044615;28;20687;-75
2022/06/17 10:24:39;;;;;;;0.00;0.00;;;27.50;99.90;;;;;;5026501;28;20295;-75
2022/06/17 10:27:13;;;;;;;0.00;0.00;;;;;;;;;;5028890;28;20281;-75
2022/06/17 10:29:48;;;;;;;0.00;0.00;;;;;;;;;;5022290;28;20199;-75
2022/06/17 10:32:15;;;;;;;0.00;0.00;;;27.70;99.90;;;;;;5027720;28;20238;-75
2022/06/17 10:34:47;;;;;;;0.00;0.00;;;27.70;99.90;;;;;;5042862;28;20246;-76
2022/06/17 10:37:15;;;;;;;0.00;0.00;;;27.90;99.90;;;;;;5027188;28;20223;-76
2022/06/17 10:39:43;;;;;;;0.00;0.00;;;28.00;99.90;;;;;;5026777;28;20207;-77
2022/06/17 10:42:15;;;;;;;0.00;0.00;;;28.10;99.90;;;;;;5026598;28;20223;-77
2022/06/17 10:44:47;;;;;;;0.00;0.00;;;28.10;99.90;;;;;;5021211;28;20219;-77
2022/06/17 10:47:25;;;;;;;0.00;0.00;;;27.90;99.90;;;;;;5022410;28;20195;-78
2022/06/17 10:49:58;;;;;;;0.00;0.00;;;27.90;99.90;;;;;;5023215;28;20261;-77
2022/06/17 10:52:37;;;;;;;0.00;0.00;;;27.80;99.90;;;;;;5022244;28;20315;-77
2022/06/17 10:55:06;;;;;;;0.00;0.00;;;27.90;99.90;;;;;;5033574;28;20238;-76
2022/06/17 10:57:37;;;;;;;0.00;0.00;;;27.90;99.90;;;;;;5020396;28;20230;-78
2022/06/17 11:00:23;;;;;;;0.00;0.00;;;28.00;99.90;;;;;;5039157;28;20199;-76
2022/06/17 11:02:50;;;;;;;0.00;0.00;;;28.10;99.90;;;;;;5035044;28;20220;-77
2022/06/17 11:05:31;;;;;;;0.00;0.00;;;28.10;99.90;;;;;;5041144;28;20234;-76
2022/06/17 11:07:58;;;;;;;0.00;0.00;;;28.00;99.90;;;;;;5017980;28;20220;-77
2022/06/17 11:10:27;;;;;;;0.00;0.00;;;28.00;99.90;;;;;;5018599;28;20195;-76
2022/06/17 11:12:57;;;;;;;0.00;0.00;;;27.90;99.90;;;;;;5035091;28;20219;-76
2022/06/17 11:15:26;;;;;;;0.00;0.00;;;27.90;99.90;;;;;;5036207;28;20250;-76
2022/06/17 11:17:58;;;;;;;0.00;0.00;;;27.90;99.90;;;;;;5034898;28;20210;-76
2022/06/17 11:20:28;;;;;;;0.00;0.00;;;27.90;99.90;;;;;;5030797;28;20294;-76
2022/06/17 11:22:59;;;;;;;0.00;0.00;;;28.00;99.90;;;;;;5022112;28;20225;-75
2022/06/17 11:25:36;;;;;;;0.00;0.00;;;28.00;99.90;;;;;;5048963;28;20296;-77
2022/06/17 11:28:12;;;;;;;0.00;0.00;;;28.10;99.90;;;;;;5048879;28;20195;-76
2022/06/17 11:30:51;;;;;;;0.00;0.00;;;28.20;99.90;;;;;;5027871;28;20226;-76
2022/06/17 11:33:24;;;;;;;0.00;0.00;;;28.20;99.90;;;;;;5041830;28;20274;-76
2022/06/17 11:36:01;;;;;;;0.00;0.00;;;28.30;99.90;;;;;;5022688;28;20250;-76
2022/06/17 11:38:31;;;;;;;0.00;0.00;;;28.40;99.90;;;;;;5022900;28;20212;-75
2022/06/17 11:41:00;;;;;;;0.00;0.00;;;28.50;99.90;;;;;;5038898;28;20269;-75
2022/06/17 11:43:34;;;;;;;0.00;0.00;;;28.50;99.90;;;;;;5030866;28;20206;-75
2022/06/17 11:46:11;;;;;;;0.00;0.00;;;28.50;99.90;;;;;;5025572;28;20200;-74
2022/06/17 11:48:43;;;;;;;0.00;0.00;;;28.60;99.90;;;;;;5022297;28;20206;-76
2022/06/17 11:51:16;;;;;;;0.00;0.00;;;28.60;99.90;;;;;;5026767;28;20200;-75
2022/06/17 11:53:47;;;;;;;0.00;0.00;;;28.60;99.90;;;;;;5025852;28;20199;-76
2022/06/17 11:56:28;;;;;;;0.00;0.00;;;28.50;99.90;;;;;;5019917;28;20314;-75
2022/06/17 11:58:59;;;;;;;0.00;0.00;;;28.40;99.90;;;;;;5037395;28;20207;-75
2022/06/17 12:01:25;;;;;;;0.00;0.00;;;28.40;99.90;;;;;;5035546;28;20227;-76
2022/06/17 12:03:52;;;;;;;0.00;0.00;;;28.40;99.90;;;;;;5034805;28;20188;-77
2022/06/17 12:06:24;;;;;;;0.00;0.00;;;28.50;99.90;;;;;;5040674;28;20196;-76
2022/06/17 12:08:58;;;;;;;0.00;0.00;;;28.70;99.90;;;;;;5023949;28;20203;-76
2022/06/17 12:11:33;;;;;;;0.00;0.00;;;28.70;99.90;;;;;;5020201;28;20292;-76
2022/06/17 12:14:06;;;;;;;0.00;0.00;;;28.80;99.90;;;;;;5036253;28;20218;-77
2022/06/17 12:16:39;;;;;;;0.00;0.00;;;28.90;99.90;;;;;;5024040;28;20322;-77
2022/06/17 12:19:11;;;;;;;0.00;0.00;;;28.90;99.90;;;;;;5039784;28;20282;-76
2022/06/17 12:21:52;;;;;;;0.00;0.00;;;28.90;99.90;;;;;;5040788;28;20219;-77
2022/06/17 12:24:27;;;;;;;0.00;0.00;;;28.90;99.90;;;;;;5022957;28;20206;-75
2022/06/17 12:27:00;;;;;;;0.00;0.00;;;28.90;99.90;;;;;;5030879;28;20218;-76
2022/06/17 12:29:39;;;;;;;0.00;0.00;;;28.90;99.90;;;;;;5029975;28;20203;-75
2022/06/17 12:32:14;;;;;;;0.00;0.00;;;28.80;99.90;;;;;;5030031;28;20241;-76
2022/06/17 12:34:51;;;;;;;0.00;0.00;;;28.80;99.90;;;;;;5039404;28;20222;-75
2022/06/17 12:37:32;;;;;;;0.00;0.00;;;28.70;99.90;;;;;;5038087;28;20260;-77
2022/06/17 12:40:06;;;;;;;0.00;0.00;;;28.50;99.90;;;;;;5029208;28;20774;-76
2022/06/17 12:42:37;;;;;;;0.00;0.00;;;28.40;99.90;;;;;;5042898;28;20261;-76
2022/06/17 12:45:16;;;;;;;0.00;0.00;;;28.30;99.90;;;;;;5046092;28;20195;-76
2022/06/17 12:47:57;;;;;;;0.00;0.00;;;28.20;99.90;;;;;;5023919;28;20632;-76
2022/06/17 12:53:28;;;;;;;0.00;0.00;;;28.10;99.90;;;;;;5026989;28;20301;-76
2022/06/17 12:56:08;;;;;;;0.00;0.00;;;28.10;99.90;;;;;;5024557;28;20269;-75
2022/06/17 12:59:01;;;;;;;0.00;0.00;;;28.10;99.90;;;;;;5043157;28;20206;-76
2022/06/17 13:01:35;;;;;;;0.00;0.00;;;28.10;99.90;;;;;;5046003;28;20211;-75
2022/06/17 13:04:17;;;;;;;0.00;0.00;;;28.20;99.90;;;;;;5026438;28;20269;-75
2022/06/17 13:07:03;;;;;;;0.00;0.00;;;28.20;99.90;;;;;;5027396;28;20198;-75
2022/06/17 13:09:42;;;;;;;0.00;0.00;;;28.20;99.90;;;;;;5027801;28;20195;-75
2022/06/17 13:12:15;;;;;;;0.00;0.00;;;28.20;99.90;;;;;;5023192;28;20246;-75
2022/06/17 13:14:51;;;;;;;0.00;0.00;;;28.20;99.90;;;;;;5041302;28;20196;-75
2022/06/17 13:17:27;;;;;;;0.00;0.00;;;28.30;99.90;;;;;;5021935;28;20211;-75
2022/06/17 13:20:02;;;;;;;0.00;0.00;;;28.20;99.90;;;;;;5022034;28;20210;-75
2022/06/17 13:22:35;;;;;;;0.00;0.00;;;28.20;99.90;;;;;;5024397;28;20214;-75
2022/06/17 13:25:16;;;;;;;0.00;0.00;;;28.10;99.90;;;;;;5024972;28;20199;-74
2022/06/17 13:27:48;;;;;;;0.00;0.00;;;28.10;99.90;;;;;;5029005;28;20291;-74
2022/06/17 13:30:20;;;;;;;0.00;0.00;;;28.10;99.90;;;;;;5030791;28;20249;-75
2022/06/17 13:32:50;;;;;;;0.00;0.00;;;28.00;99.90;;;;;;5027358;28;20226;-74